Time;durP1;ratioP1;P1;durP2;ratioP2;P2;SDS_P1;SDS_P2;PMS_P1;PMS_P2;Temp;Humidity;BMP_temperature;BMP_pressure;BME280_temperature;BME280_humidity;BME280_pressure;Samples;Min_cycle;Max_cycle;Signal;HPM_P1;HPM_P2
2022/07/10 00:01:02;;;;;;;;;2.75;2.75;;;;;21.15;43.75;102313.72;5100155;27;46893;-64
2022/07/10 00:03:28;;;;;;;;;5.00;2.75;;;;;21.11;44.08;102308.81;5100064;27;45338;-59
2022/07/10 00:05:53;;;;;;;;;3.50;3.25;;;;;21.09;43.67;102305.44;5100229;27;45302;-59
2022/07/10 00:08:19;;;;;;;;;3.50;2.75;;;;;21.07;43.66;102304.78;5100312;27;45407;-60
2022/07/10 00:10:44;;;;;;;;;6.50;3.75;;;;;21.01;44.20;102308.19;5100142;27;46159;-59
2022/07/10 00:13:09;;;;;;;;;4.25;2.00;;;;;20.98;44.25;102308.56;5099855;27;45396;-60
2022/07/10 00:15:35;;;;;;;;;4.00;2.00;;;;;20.93;44.69;102309.09;5099920;27;45387;-59
2022/07/10 00:18:00;;;;;;;;;2.00;2.00;;;;;20.93;44.91;102319.91;5100133;27;45270;-58
2022/07/10 00:20:26;;;;;;;;;3.50;2.00;;;;;20.77;45.34;102295.63;5099738;27;45987;-59
2022/07/10 00:22:51;;;;;;;;;3.75;3.75;;;;;20.88;44.70;102330.41;5099857;27;45236;-58
2022/07/10 00:25:17;;;;;;;;;2.75;2.00;;;;;20.84;44.96;102323.66;5099636;27;45210;-59
2022/07/10 00:27:42;;;;;;;;;6.50;3.50;;;;;20.82;45.56;102323.88;5100224;27;45280;-59
2022/07/10 00:30:11;;;;;;;;;2.75;2.00;;;;;20.80;45.76;102323.19;5099364;27;46029;-59
2022/07/10 00:32:37;;;;;;;;;3.00;2.00;;;;;20.80;45.38;102330.44;5099229;27;45411;-59
2022/07/10 00:35:03;;;;;;;;;2.00;2.00;;;;;20.75;44.89;102324.72;5098931;27;45462;-58
2022/07/10 00:37:29;;;;;;;;;3.00;3.00;;;;;20.78;45.37;102330.63;5099781;27;45485;-59
2022/07/10 00:39:55;;;;;;;;;3.25;3.25;;;;;20.73;45.54;102333.03;5099447;27;45304;-58
2022/07/10 00:42:21;;;;;;;;;4.00;4.00;;;;;20.62;45.17;102323.44;5099428;27;45259;-59
2022/07/10 00:44:46;;;;;;;;;3.00;3.00;;;;;20.67;45.60;102334.56;5099317;27;45344;-58
2022/07/10 00:47:13;;;;;;;;;4.50;2.50;;;;;20.65;45.64;102333.91;5099746;27;45323;-59
2022/07/10 00:49:39;;;;;;;;;2.00;2.00;;;;;20.48;46.16;102301.63;5099366;27;45672;-60
2022/07/10 00:52:12;;;;;;;;;2.00;2.00;;;;;20.55;45.91;102318.88;5099159;27;45414;-58
2022/07/10 00:54:41;;;;;;;;;3.00;3.00;;;;;20.54;46.14;102309.09;5099329;27;45429;-59
2022/07/10 00:57:07;;;;;;;;;3.00;3.00;;;;;20.37;46.66;102303.69;5115412;27;45460;-59
2022/07/10 00:59:34;;;;;;;;;2.50;2.50;;;;;20.34;45.64;102300.50;5098894;27;45364;-58
2022/07/10 01:02:01;;;;;;;;;3.75;2.75;;;;;20.35;47.01;102308.44;5099258;27;45253;-60
2022/07/10 01:04:26;;;;;;;;;2.25;2.25;;;;;20.36;46.38;102317.41;5099295;27;45307;-59
2022/07/10 01:06:52;;;;;;;;;2.50;2.50;;;;;20.32;47.01;102318.75;5099361;27;45380;-58
2022/07/10 01:09:18;;;;;;;;;2.50;2.25;;;;;20.28;46.61;102312.00;5098787;27;46248;-59
2022/07/10 01:11:43;;;;;;;;;3.00;3.00;;;;;20.29;45.78;102308.28;5098792;27;45438;-58
2022/07/10 01:14:10;;;;;;;;;3.00;3.00;;;;;20.20;47.45;102310.16;5098989;27;45673;-60
2022/07/10 01:16:37;;;;;;;;;3.00;3.00;;;;;20.18;47.01;102315.75;5099178;27;45344;-59
2022/07/10 01:19:02;;;;;;;;;5.50;3.75;;;;;20.19;47.56;102311.19;5098834;27;47229;-59
2022/07/10 01:21:30;;;;;;;;;3.00;3.00;;;;;20.13;47.61;102310.00;5097602;27;45509;-58
2022/07/10 01:23:57;;;;;;;;;5.00;3.00;;;;;20.01;47.95;102291.63;5098892;27;45331;-59
2022/07/10 01:26:23;;;;;;;;;4.00;4.00;;;;;20.07;47.80;102307.16;5099189;27;45248;-59
2022/07/10 01:28:50;;;;;;;;;3.50;3.50;;;;;20.09;47.96;102322.16;5098684;27;45300;-59
2022/07/10 01:31:34;;;;;;;;;3.00;3.00;;;;;20.04;46.74;102315.59;5098396;27;45392;-59
2022/07/10 01:34:01;;;;;;;;;4.00;2.75;;;;;19.97;48.16;102319.97;5099078;27;45318;-59
2022/07/10 01:36:29;;;;;;;;;5.00;3.00;;;;;19.90;47.88;102309.03;5098930;27;45284;-62
2022/07/10 01:38:56;;;;;;;;;5.00;5.00;;;;;19.83;48.26;102308.84;5098432;27;46263;-60
2022/07/10 01:41:23;;;;;;;;;2.50;2.50;;;;;19.80;48.70;102313.75;5098611;27;45250;-63
2022/07/10 01:43:48;;;;;;;;;3.00;2.75;;;;;19.77;48.87;102314.09;5098726;27;45347;-58
2022/07/10 01:46:14;;;;;;;;;2.75;2.75;;;;;19.75;48.88;102311.56;5098591;27;45423;-57
2022/07/10 01:48:39;;;;;;;;;3.25;3.25;;;;;19.76;48.79;102318.63;5098440;27;45460;-58
2022/07/10 01:51:06;;;;;;;;;4.00;4.00;;;;;19.72;48.43;102308.34;5098508;27;45335;-58
2022/07/10 01:53:31;;;;;;;;;5.75;3.00;;;;;19.69;48.81;102315.78;5098435;27;45347;-59
2022/07/10 01:55:57;;;;;;;;;7.00;5.00;;;;;19.67;49.16;102314.25;5098634;27;45381;-58
2022/07/10 01:58:23;;;;;;;;;3.00;3.00;;;;;19.61;48.06;102298.75;5098153;27;47222;-58
2022/07/10 02:00:48;;;;;;;;;2.00;2.00;;;;;19.62;49.04;102314.75;5098103;27;45529;-58
2022/07/10 02:05:57;;;;;;;;;3.00;3.00;;;;;19.55;49.37;102321.84;5098496;27;45285;-59
2022/07/10 02:08:23;;;;;;;;;3.00;2.00;;;;;19.53;48.97;102321.13;5098070;27;47369;-59
2022/07/10 02:10:49;;;;;;;;;2.25;2.25;;;;;19.52;48.94;102321.31;5097949;27;45343;-59
2022/07/10 02:13:17;;;;;;;;;5.00;2.25;;;;;19.49;49.52;102319.78;5098259;27;45420;-59
2022/07/10 02:15:42;;;;;;;;;3.00;3.00;;;;;19.44;48.70;102316.75;5098206;27;45321;-59
2022/07/10 02:18:08;;;;;;;;;5.25;4.00;;;;;19.44;49.43;102324.84;5097727;27;46814;-58
2022/07/10 02:20:34;;;;;;;;;2.25;2.25;;;;;19.40;49.78;102331.59;5114061;27;45201;-60
2022/07/10 02:23:00;;;;;;;;;4.50;3.50;;;;;19.36;49.32;102317.56;5098012;27;45339;-59
2022/07/10 02:25:26;;;;;;;;;4.00;4.00;;;;;19.36;49.36;102322.97;5098054;27;45372;-58
2022/07/10 02:27:51;;;;;;;;;3.50;2.50;;;;;19.30;48.83;102314.69;5097649;27;46233;-58
2022/07/10 02:30:17;;;;;;;;;3.50;3.50;;;;;19.18;49.36;102298.84;5097618;27;45434;-59
2022/07/10 02:32:42;;;;;;;;;4.00;4.00;;;;;19.27;49.64;102317.72;5097613;27;45466;-59
2022/07/10 02:35:08;;;;;;;;;3.50;3.00;;;;;19.22;49.16;102310.13;5097887;27;45411;-59
2022/07/10 02:37:33;;;;;;;;;3.00;3.00;;;;;19.23;48.99;102313.69;5097719;27;45367;-59
2022/07/10 02:39:59;;;;;;;;;4.25;3.00;;;;;19.18;49.26;102301.53;5097798;27;45478;-61
2022/07/10 02:42:24;;;;;;;;;7.00;4.00;;;;;19.13;49.59;102306.59;5097778;27;45234;-59
2022/07/10 02:44:49;;;;;;;;;3.00;3.00;;;;;19.07;49.24;102299.13;5097777;27;45478;-59
2022/07/10 02:47:15;;;;;;;;;4.00;4.00;;;;;19.04;49.79;102307.53;5097439;27;46125;-59
2022/07/10 02:49:40;;;;;;;;;3.33;3.33;;;;;19.04;50.70;102302.16;5097697;27;45261;-58
2022/07/10 02:52:05;;;;;;;;;4.50;3.00;;;;;19.03;49.87;102297.78;5097673;27;45632;-58
2022/07/10 02:54:31;;;;;;;;;4.00;4.00;;;;;18.99;49.79;102292.88;5098133;27;45300;-60
2022/07/10 02:56:56;;;;;;;;;3.25;3.00;;;;;18.96;50.44;102285.94;5097603;27;46246;-59
2022/07/10 02:59:21;;;;;;;;;6.33;5.00;;;;;18.94;50.67;102282.56;5101256;27;45541;-59
2022/07/10 03:01:47;;;;;;;;;8.67;4.00;;;;;18.94;50.32;102280.72;5101096;27;45397;-59
2022/07/10 03:04:12;;;;;;;;;8.33;6.00;;;;;18.92;50.63;102288.16;5101296;27;45443;-58
2022/07/10 03:06:38;;;;;;;;;6.00;6.00;;;;;18.89;50.28;102277.69;5101083;27;46012;-58
2022/07/10 03:09:03;;;;;;;;;5.00;5.00;;;;;18.87;50.75;102285.06;5101140;27;45249;-59
2022/07/10 03:11:28;;;;;;;;;4.33;4.00;;;;;18.86;50.87;102285.25;5100997;27;45336;-59
2022/07/10 03:13:54;;;;;;;;;5.00;3.00;;;;;18.82;50.78;102284.72;5101319;27;45318;-58
2022/07/10 03:16:19;;;;;;;;;5.67;5.00;;;;;18.84;50.63;102295.38;5100748;27;45450;-59
2022/07/10 03:18:45;;;;;;;;;7.67;4.00;;;;;18.81;50.33;102291.13;5100709;27;45658;-58
2022/07/10 03:21:10;;;;;;;;;6.00;4.33;;;;;18.80;50.86;102288.63;5101063;27;45339;-58
2022/07/10 03:23:36;;;;;;;;;7.00;4.33;;;;;18.81;50.22;102290.28;5101052;27;45303;-59
2022/07/10 03:26:01;;;;;;;;;4.33;4.33;;;;;18.79;50.87;102286.91;5100651;27;46168;-60
2022/07/10 03:28:26;;;;;;;;;5.00;4.00;;;;;18.80;51.23;102283.22;5100649;27;45461;-59
2022/07/10 03:30:52;;;;;;;;;9.33;7.00;;;;;18.80;50.79;102286.75;5100407;27;45913;-59
2022/07/10 03:33:17;;;;;;;;;5.33;3.67;;;;;18.78;50.97;102277.97;5101001;27;45272;-58
2022/07/10 03:35:43;;;;;;;;;4.33;4.33;;;;;18.70;50.85;102261.78;5100533;27;45471;-58
2022/07/10 03:38:08;;;;;;;;;2.00;2.00;;;;;18.78;50.77;102280.66;5116467;27;45457;-59
2022/07/10 03:40:33;;;;;;;;;4.00;4.00;;;;;18.77;51.05;102278.16;5100758;27;45629;-59
2022/07/10 03:42:59;;;;;;;;;4.00;4.00;;;;;18.65;51.39;102264.91;5100791;27;45396;-59
2022/07/10 03:45:24;;;;;;;;;3.00;3.00;;;;;18.66;50.72;102272.00;5100464;27;45958;-59
2022/07/10 03:47:49;;;;;;;;;3.67;3.00;;;;;18.72;51.14;102284.03;5100219;27;45295;-59
2022/07/10 03:50:15;;;;;;;;;4.00;3.00;;;;;18.72;51.05;102292.13;5100466;27;45283;-58
2022/07/10 03:52:40;;;;;;;;;4.67;3.33;;;;;18.68;51.14;102285.31;5100500;27;45192;-59
2022/07/10 03:55:06;;;;;;;;;4.67;4.00;;;;;18.66;51.21;102287.31;5100320;27;45956;-60
2022/07/10 04:00:16;;;;;;;;;2.00;2.00;;;;;18.58;51.37;102274.69;5100197;27;45338;-60
2022/07/10 04:02:41;;;;;;;;;4.33;3.33;;;;;18.55;51.37;102274.16;5100305;27;45350;-59
2022/07/10 04:05:10;;;;;;;;;4.67;3.67;;;;;18.54;50.99;102273.31;5100024;27;47139;-59
2022/07/10 04:07:37;;;;;;;;;4.33;4.33;;;;;18.55;50.85;102279.56;5100559;27;45328;-59
2022/07/10 04:10:03;;;;;;;;;3.67;3.33;;;;;18.52;51.47;102280.72;5098716;27;45366;-60
2022/07/10 04:12:28;;;;;;;;;4.00;3.67;;;;;18.49;51.78;102277.47;5100308;27;45406;-59
2022/07/10 04:14:54;;;;;;;;;5.00;4.00;;;;;18.47;52.09;102277.66;5099862;27;45379;-58
2022/07/10 04:17:20;;;;;;;;;6.00;3.67;;;;;18.48;50.92;102281.19;5099978;27;45295;-60
2022/07/10 04:19:46;;;;;;;;;3.67;3.67;;;;;18.45;51.89;102280.50;5099972;27;45212;-59
2022/07/10 04:22:11;;;;;;;;;3.00;3.00;;;;;18.44;51.50;102284.19;5100021;27;45502;-59
2022/07/10 04:24:37;;;;;;;;;5.33;4.00;;;;;18.41;50.78;102284.53;5099830;27;46385;-60
2022/07/10 04:27:02;;;;;;;;;4.00;4.00;;;;;18.39;51.70;102288.41;5099768;27;45251;-59
2022/07/10 04:29:27;;;;;;;;;3.33;3.33;;;;;18.39;52.29;102289.22;5099497;27;45385;-59
2022/07/10 04:31:53;;;;;;;;;4.00;2.33;;;;;18.38;52.35;102290.25;5099813;27;45287;-59
2022/07/10 04:34:19;;;;;;;;;2.67;2.67;;;;;18.36;52.28;102292.25;5099510;27;46240;-58
2022/07/10 04:36:45;;;;;;;;;4.33;3.33;;;;;18.33;52.47;102289.03;5099953;27;45408;-58
2022/07/10 04:39:10;;;;;;;;;3.00;3.00;;;;;18.34;51.92;102294.25;5099672;27;45422;-59
2022/07/10 04:41:35;;;;;;;;;4.33;4.33;;;;;18.36;51.95;102284.16;5099980;27;45375;-58
2022/07/10 04:44:01;;;;;;;;;3.00;3.00;;;;;18.27;51.95;102278.91;5099623;27;45315;-59
2022/07/10 04:46:26;;;;;;;;;3.00;3.00;;;;;18.35;51.47;102289.72;5099391;27;45292;-59
2022/07/10 04:48:51;;;;;;;;;4.67;4.00;;;;;18.32;51.92;102292.72;5099451;27;45865;-59
2022/07/10 04:51:17;;;;;;;;;6.00;4.00;;;;;18.28;52.40;102291.34;5099706;27;45355;-59
2022/07/10 04:53:43;;;;;;;;;6.00;4.00;;;;;18.19;51.90;102287.78;5099391;27;47027;-60
2022/07/10 04:56:08;;;;;;;;;4.00;3.67;;;;;18.14;52.78;102292.78;5099361;27;45299;-59
2022/07/10 04:58:33;;;;;;;;;5.67;4.00;;;;;18.13;52.75;102283.88;5099399;27;45338;-59
2022/07/10 05:00:59;;;;;;;;;7.67;5.67;;;;;18.14;53.00;102292.78;5099623;27;45411;-59
2022/07/10 05:03:24;;;;;;;;;3.00;3.00;;;;;18.06;51.90;102272.03;5099263;27;45360;-61
2022/07/10 05:05:49;;;;;;;;;5.00;5.00;;;;;18.13;52.53;102283.88;5099430;27;45369;-60
2022/07/10 05:08:15;;;;;;;;;4.00;3.00;;;;;18.07;52.74;102271.03;5099474;27;45477;-60
2022/07/10 05:10:40;;;;;;;;;3.00;3.00;;;;;18.15;52.73;102281.00;5081061;27;45573;-60
2022/07/10 05:13:06;;;;;;;;;3.00;3.00;;;;;18.15;52.30;102281.84;5099111;27;45271;-60
2022/07/10 05:15:32;;;;;;;;;6.00;4.33;;;;;18.11;51.87;102283.16;5099352;27;45228;-60
2022/07/10 05:17:57;;;;;;;;;6.00;4.00;;;;;18.13;52.90;102291.09;5098842;27;45367;-59
2022/07/10 05:20:23;;;;;;;;;5.00;5.00;;;;;18.14;52.15;102293.63;5098868;27;45391;-59
2022/07/10 05:22:48;;;;;;;;;5.33;5.00;;;;;18.15;52.70;102289.94;5098900;27;46124;-59
2022/07/10 05:25:13;;;;;;;;;5.67;5.00;;;;;18.13;52.66;102285.72;5098837;27;45279;-59
2022/07/10 05:27:39;;;;;;;;;5.67;4.67;;;;;18.16;52.61;102296.16;5098930;27;45328;-59
2022/07/10 05:30:05;;;;;;;;;5.00;3.33;;;;;18.17;51.98;102297.88;5098845;27;45365;-59
2022/07/10 05:32:30;;;;;;;;;9.33;5.00;;;;;18.17;52.30;102298.72;5098334;27;45494;-59
2022/07/10 05:34:58;;;;;;;;;6.00;6.00;;;;;18.17;52.00;102290.63;5098658;27;45451;-60
2022/07/10 05:37:24;;;;;;;;;3.67;3.67;;;;;18.17;52.41;102298.72;5098922;27;45343;-59
2022/07/10 05:39:49;;;;;;;;;4.33;4.33;;;;;18.17;52.47;102292.47;5098901;27;45397;-59
2022/07/10 05:42:14;;;;;;;;;3.00;2.67;;;;;18.15;52.78;102283.69;5098438;27;46264;-59
2022/07/10 05:44:40;;;;;;;;;6.67;4.00;;;;;18.20;52.33;102298.41;5098570;27;45470;-58
2022/07/10 05:47:06;;;;;;;;;6.33;5.00;;;;;18.24;52.65;102303.44;5098563;27;45714;-60
2022/07/10 05:49:32;;;;;;;;;4.00;4.00;;;;;18.26;52.63;102302.28;5098772;27;45690;-59
2022/07/10 05:51:57;;;;;;;;;5.00;3.33;;;;;18.30;52.46;102295.59;5098256;27;45310;-60
2022/07/10 05:54:23;;;;;;;;;5.33;3.00;;;;;18.35;52.03;102306.72;5114429;27;45328;-60
2022/07/10 05:56:48;;;;;;;;;5.67;4.00;;;;;18.26;52.29;102288.00;5098529;27;45296;-59
2022/07/10 05:59:14;;;;;;;;;3.00;3.00;;;;;18.41;52.01;102305.22;5098696;27;45378;-59
2022/07/10 06:01:40;;;;;;;;;3.00;3.00;;;;;18.45;51.52;102307.44;5098236;27;45178;-59
2022/07/10 06:04:05;;;;;;;;;4.33;3.67;;;;;18.44;51.45;102299.53;5098061;27;45444;-59
2022/07/10 06:06:31;;;;;;;;;3.33;3.33;;;;;18.40;51.40;102285.53;5098362;27;45419;-60
2022/07/10 06:08:56;;;;;;;;;7.67;3.67;;;;;18.57;51.69;102308.00;5098275;27;45395;-59
2022/07/10 06:11:21;;;;;;;;;4.33;3.67;;;;;18.61;51.46;102303.16;5098128;27;45397;-59
2022/07/10 06:13:47;;;;;;;;;5.00;4.33;;;;;18.68;51.06;102310.44;5097910;27;45363;-59
2022/07/10 06:16:12;;;;;;;;;3.67;3.00;;;;;18.69;51.21;102309.44;5098230;27;45493;-59
2022/07/10 06:18:37;;;;;;;;;3.50;3.00;;;;;18.79;50.87;102313.88;5098127;27;45344;-59
2022/07/10 06:21:03;;;;;;;;;6.00;5.00;;;;;18.83;50.69;102309.84;5097681;27;47003;-60
2022/07/10 06:23:28;;;;;;;;;3.00;3.00;;;;;18.86;50.64;102299.56;5097838;27;45303;-59
2022/07/10 06:25:54;;;;;;;;;9.33;4.00;;;;;18.93;50.68;102300.63;5098054;27;45322;-60
2022/07/10 06:28:19;;;;;;;;;4.00;3.33;;;;;18.99;50.30;102295.56;5098190;27;45394;-59
2022/07/10 06:30:48;;;;;;;;;8.00;5.00;;;;;19.08;50.14;102308.06;5096444;27;47239;-59
2022/07/10 06:33:13;;;;;;;;;3.00;3.00;;;;;19.13;49.69;102293.09;5096413;27;45166;-59
2022/07/10 06:35:38;;;;;;;;;6.67;5.00;;;;;19.24;49.72;102299.16;5097764;27;45500;-59
2022/07/10 06:38:04;;;;;;;;;10.67;10.67;;;;;19.33;49.41;102299.00;5096587;27;45339;-59
2022/07/10 06:40:29;;;;;;;;;10.67;6.33;;;;;19.44;49.28;102295.16;5097789;27;46208;-60
2022/07/10 06:42:55;;;;;;;;;4.67;4.67;;;;;19.65;49.10;102294.69;5097633;27;45296;-59
2022/07/10 06:45:20;;;;;;;;;5.25;3.00;;;;;19.92;48.70;102288.09;5097918;27;45478;-60
2022/07/10 06:47:55;;;;;;;;;5.50;4.75;;;;;20.30;47.83;102297.28;5098498;27;45346;-59
2022/07/10 06:50:21;;;;;;;;;3.75;3.75;;;;;20.79;47.87;102293.63;5097890;27;45384;-60
2022/07/10 06:52:47;;;;;;;;;3.75;3.00;;;;;21.24;46.62;102292.84;5097585;27;45368;-60
2022/07/10 06:55:12;;;;;;;;;4.00;4.00;;;;;21.80;45.66;102306.16;5098842;27;45336;-60
2022/07/10 06:57:39;;;;;;;;;6.00;3.00;;;;;22.41;46.63;102305.03;5099192;27;45515;-59
2022/07/10 07:00:06;;;;;;;;;3.00;3.00;;;;;22.95;44.86;102300.34;5097939;27;47221;-61
2022/07/10 07:02:31;;;;;;;;;5.00;3.40;;;;;23.48;43.50;102300.91;5097937;27;45413;-60
2022/07/10 07:04:57;;;;;;;;;3.50;2.75;;;;;23.97;41.83;102303.66;5097879;27;45564;-61
2022/07/10 07:07:22;;;;;;;;;3.50;2.50;;;;;24.58;39.09;102300.31;5097630;27;45297;-61
2022/07/10 07:09:50;;;;;;;;;3.00;1.75;;;;;25.10;39.50;102296.97;5097257;27;47175;-61
2022/07/10 07:12:16;;;;;;;;;4.40;1.80;;;;;25.59;36.71;102292.22;5097251;27;45466;-62
2022/07/10 07:14:42;;;;;;;;;2.00;2.00;;;;;26.16;36.83;102298.09;5097327;27;45435;-61
2022/07/10 07:17:09;;;;;;;;;2.25;2.25;;;;;26.74;35.56;102292.69;5097493;27;45288;-61
2022/07/10 07:25:08;;;;;;;;;1.00;1.00;;;;;29.15;31.45;102282.94;5097245;27;45327;-61
2022/07/10 07:27:35;;;;;;;;;7.20;5.80;;;;;31.28;28.38;102278.69;5113163;27;45438;-62
2022/07/10 07:30:12;;;;;;;;;3.60;3.60;;;;;32.98;26.72;102283.59;5096941;27;46862;-61
2022/07/10 07:32:38;;;;;;;;;2.00;2.00;;;;;34.10;25.53;102277.34;5112715;27;45512;-61
2022/07/10 07:35:05;;;;;;;;;2.60;2.60;;;;;35.27;25.73;102269.44;5096943;27;45342;-61
2022/07/10 07:37:39;;;;;;;;;3.60;3.00;;;;;36.22;23.61;102269.59;5097275;27;45265;-60
2022/07/10 07:40:07;;;;;;;;;4.00;2.40;;;;;36.75;23.70;102259.91;5096715;27;46440;-60
2022/07/10 07:42:33;;;;;;;;;2.60;2.40;;;;;37.52;20.65;102265.75;5097022;27;45386;-60
2022/07/10 07:44:58;;;;;;;;;1.00;1.00;;;;;38.15;22.05;102252.56;5100267;27;45379;-60
2022/07/10 07:47:24;;;;;;;;;2.00;2.00;;;;;38.65;19.65;102249.44;5100775;27;45310;-60
2022/07/10 07:49:49;;;;;;;;;2.25;2.25;;;;;39.10;18.71;102250.69;5100246;27;45248;-60
2022/07/10 07:52:15;;;;;;;;;1.25;1.25;;;;;39.68;19.95;102243.84;5100272;27;45535;-61
2022/07/10 07:54:40;;;;;;;;;1.00;1.00;;;;;40.40;18.80;102237.63;5100456;27;45263;-60
2022/07/10 07:57:06;;;;;;;;;1.00;1.00;;;;;41.06;16.87;102246.44;5100583;27;45623;-60
2022/07/10 07:59:31;;;;;;;;;6.00;2.00;;;;;41.54;17.37;102243.78;5100110;27;47447;-58
2022/07/10 08:01:57;;;;;;;;;1.50;1.50;;;;;41.95;16.20;102253.84;5100127;27;45371;-59
2022/07/10 08:04:22;;;;;;;;;4.00;2.25;;;;;42.43;16.40;102238.16;5100136;27;45430;-59
2022/07/10 08:06:51;;;;;;;;;2.25;2.25;;;;;42.87;15.44;102244.63;5100552;27;45417;-58
2022/07/10 08:09:20;;;;;;;;;3.40;2.80;;;;;43.02;15.49;102249.69;5100020;27;46228;-58
2022/07/10 08:11:46;;;;;;;;;1.60;1.20;;;;;43.40;15.09;102249.78;5100041;27;45317;-59
2022/07/10 08:14:11;;;;;;;;;3.00;2.60;;;;;43.61;15.15;102247.09;5100203;27;45386;-58
2022/07/10 08:16:37;;;;;;;;;3.75;2.00;;;;;43.82;15.43;102236.78;5100206;27;45404;-59
2022/07/10 08:19:02;;;;;;;;;4.00;1.00;;;;;44.22;15.53;102232.78;5099912;27;46982;-59
2022/07/10 08:21:28;;;;;;;;;2.00;2.00;;;;;44.20;14.31;102227.50;5099850;27;45431;-59
2022/07/10 08:23:53;;;;;;;;;2.25;2.25;;;;;44.44;14.64;102228.84;5100312;27;45672;-60
2022/07/10 08:26:19;;;;;;;;;3.00;3.00;;;;;44.58;14.33;102226.56;5100105;27;45361;-60
2022/07/10 08:28:45;;;;;;;;;2.50;1.25;;;;;44.47;14.33;102230.97;5099647;27;46503;-58
2022/07/10 08:31:10;;;;;;;;;6.75;3.75;;;;;44.65;14.84;102237.28;5099504;27;45782;-59
2022/07/10 08:33:36;;;;;;;;;3.50;3.50;;;;;44.80;13.59;102226.25;5099802;27;45414;-58
2022/07/10 08:36:01;;;;;;;;;1.75;1.75;;;;;44.92;14.24;102238.66;5099634;27;45353;-58
2022/07/10 08:38:27;;;;;;;;;2.50;2.00;;;;;44.64;14.04;102236.47;5099707;27;46002;-60
2022/07/10 08:40:57;;;;;;;;;3.50;3.50;;;;;44.86;12.48;102238.06;5099566;27;45285;-61
2022/07/10 08:43:24;;;;;;;;;2.00;1.40;;;;;45.22;13.06;102245.00;5099663;27;45292;-60
2022/07/10 08:45:53;;;;;;;;;1.80;1.80;;;;;45.40;13.20;102240.81;5099806;27;45297;-59
2022/07/10 08:48:23;;;;;;;;;1.80;1.80;;;;;45.45;12.70;102234.19;5099214;27;46929;-59
2022/07/10 08:50:52;;;;;;;;;2.80;1.20;;;;;45.99;12.25;102233.97;5099354;27;45347;-59
2022/07/10 08:53:30;;;;;;;;;1.40;1.40;;;;;46.33;11.52;102226.19;5099390;27;45360;-59
2022/07/10 08:55:56;;;;;;;;;1.80;1.80;;;;;46.74;11.50;102194.84;5098809;27;45397;-61
2022/07/10 08:58:22;;;;;;;;;3.80;3.80;;;;;46.86;11.69;102212.84;5099044;27;46398;-61
2022/07/10 09:00:48;;;;;;;;;2.20;2.20;;;;;47.01;12.22;102223.34;5099295;27;45439;-60
2022/07/10 09:03:13;;;;;;;;;4.75;4.75;;;;;46.69;11.19;102214.81;5099503;27;45831;-61
2022/07/10 09:05:39;;;;;;;;;4.00;4.00;;;;;46.59;11.76;102212.50;5114826;27;45574;-61
2022/07/10 09:08:20;;;;;;;;;3.50;2.75;;;;;46.89;11.44;102212.94;5099045;27;45240;-62
2022/07/10 09:10:46;;;;;;;;;3.00;3.00;;;;;46.85;11.75;102214.03;5099052;27;45616;-59
2022/07/10 09:13:11;;;;;;;;;2.25;2.25;;;;;46.82;11.71;102209.09;5099193;27;45342;-60
2022/07/10 09:15:36;;;;;;;;;4.25;2.00;;;;;47.09;11.67;102194.19;5099344;27;45777;-58
2022/07/10 09:18:05;;;;;;;;;3.00;3.00;;;;;47.40;11.26;102201.03;5097679;27;47264;-58
2022/07/10 09:20:36;;;;;;;;;1.20;1.20;;;;;47.54;10.51;102192.94;5098657;27;45498;-58
2022/07/10 09:23:14;;;;;;;;;2.00;1.80;;;;;47.58;11.30;102191.03;5099092;27;45387;-60
2022/07/10 09:25:39;;;;;;;;;3.00;1.80;;;;;47.81;10.14;102190.34;5099139;27;45295;-57
2022/07/10 09:28:08;;;;;;;;;1.25;1.25;;;;;48.21;9.66;102188.06;5098904;27;45431;-59
2022/07/10 09:30:33;;;;;;;;;2.40;1.80;;;;;47.93;10.68;102193.88;5098676;27;45190;-58
2022/07/10 09:33:19;;;;;;;;;1.75;1.75;;;;;47.62;10.75;102197.56;5098604;27;45177;-59
2022/07/10 09:36:09;;;;;;;;;2.00;2.00;;;;;47.69;11.06;102189.28;5098933;27;45348;-59
2022/07/10 09:38:43;;;;;;;;;3.80;2.20;;;;;47.28;10.90;102187.81;5098595;27;46536;-58
2022/07/10 09:41:12;;;;;;;;;3.00;1.80;;;;;47.23;10.92;102188.91;5098575;27;45373;-58
2022/07/10 09:43:49;;;;;;;;;2.60;2.60;;;;;47.20;10.93;102180.38;5098488;27;45188;-58
2022/07/10 09:46:16;;;;;;;;;1.00;1.00;;;;;47.47;10.98;102187.13;5098900;27;45537;-59
2022/07/10 09:48:41;;;;;;;;;1.80;1.00;;;;;47.36;11.08;102191.66;5098643;27;45719;-59
2022/07/10 09:51:09;;;;;;;;;4.00;2.50;;;;;47.49;10.66;102193.19;5098385;27;45470;-59
2022/07/10 09:53:43;;;;;;;;;2.00;2.00;;;;;47.53;10.61;102198.91;5098392;27;45268;-60
2022/07/10 09:56:10;;;;;;;;;3.00;3.00;;;;;47.60;10.82;102193.47;5098647;27;45388;-60
2022/07/10 09:58:36;;;;;;;;;2.20;1.00;;;;;47.68;10.63;102187.66;5098169;27;46100;-61
2022/07/10 10:01:06;;;;;;;;;2.60;1.40;;;;;47.59;10.88;102183.38;5098162;27;45186;-60
2022/07/10 10:03:35;;;;;;;;;1.80;1.80;;;;;47.66;11.02;102189.16;5098088;27;45353;-63
2022/07/10 10:06:14;;;;;;;;;1.20;1.20;;;;;47.49;10.92;102165.84;5098348;27;45450;-60
2022/07/10 10:08:45;;;;;;;;;2.40;1.80;;;;;47.31;10.80;102186.31;5098097;27;46260;-61
2022/07/10 10:11:15;;;;;;;;;2.20;2.20;;;;;47.34;11.45;102180.78;5098390;27;45407;-60
2022/07/10 10:13:42;;;;;;;;;2.80;2.80;;;;;47.31;10.83;102189.94;5098443;27;45241;-61
2022/07/10 10:16:09;;;;;;;;;2.00;2.00;;;;;46.84;11.42;102156.88;5098398;27;45268;-61
2022/07/10 10:18:36;;;;;;;;;2.00;2.00;;;;;46.72;11.13;102179.47;5097584;27;46531;-62
2022/07/10 10:21:06;;;;;;;;;1.20;1.20;;;;;46.82;10.94;102175.31;5097287;27;45568;-62
2022/07/10 10:23:34;;;;;;;;;6.40;2.20;;;;;46.81;10.98;102176.50;5097364;27;46151;-61
2022/07/10 10:25:59;;;;;;;;;1.60;1.60;;;;;46.52;11.17;102170.03;5095020;27;45404;-58
2022/07/10 10:28:26;;;;;;;;;2.00;2.00;;;;;46.28;11.36;102163.34;5097068;27;46104;-62
2022/07/10 10:30:55;;;;;;;;;1.80;1.80;;;;;46.15;11.86;102161.72;5097380;27;45477;-59
2022/07/10 10:33:37;;;;;;;;;0.80;0.80;;;;;45.94;11.64;102163.91;5097645;27;45363;-59
2022/07/10 10:36:04;;;;;;;;;2.60;2.00;;;;;45.88;11.54;102170.94;5095003;27;45321;-59
2022/07/10 10:38:44;;;;;;;;;1.20;1.20;;;;;45.28;12.25;102162.13;5097271;27;46087;-60
2022/07/10 10:41:37;;;;;;;;;1.80;1.80;;;;;44.84;11.94;102160.97;5096874;27;45399;-59
2022/07/10 10:44:18;;;;;;;;;2.40;2.40;;;;;44.31;12.20;102155.84;5095335;27;45362;-59
2022/07/10 10:47:06;;;;;;;;;3.60;1.20;;;;;43.94;12.39;102149.19;5098134;27;45338;-60
2022/07/10 10:49:49;;;;;;;;;3.60;1.60;;;;;43.60;12.85;102141.78;5097551;27;47142;-61
2022/07/10 10:52:15;;;;;;;;;2.60;2.60;;;;;42.82;13.49;102140.09;5097415;27;45219;-59
2022/07/10 10:54:56;;;;;;;;;3.00;2.00;;;;;41.68;13.22;102148.72;5097679;27;45275;-59
2022/07/10 10:57:22;;;;;;;;;2.00;2.00;;;;;39.90;14.57;102143.66;5097676;27;45432;-60
2022/07/10 10:59:49;;;;;;;;;3.20;1.80;;;;;38.29;16.23;102132.34;5097110;27;46183;-59
2022/07/10 11:02:26;;;;;;;;;1.00;1.00;;;;;36.67;16.70;102134.66;5097318;27;45398;-60
2022/07/10 11:05:18;;;;;;;;;1.40;1.40;;;;;35.40;18.73;102129.72;5097498;27;45155;-60
2022/07/10 11:07:58;;;;;;;;;1.20;1.20;;;;;34.02;19.99;102126.81;5097556;27;45208;-61
2022/07/10 11:10:29;;;;;;;;;4.40;1.40;;;;;33.25;20.84;102118.13;5097274;27;46075;-60
2022/07/10 11:13:06;;;;;;;;;2.60;1.80;;;;;32.67;21.71;102111.56;5097091;27;45242;-57
2022/07/10 11:15:33;;;;;;;;;3.00;1.20;;;;;32.01;22.52;102100.66;5097431;27;45183;-58
2022/07/10 11:18:06;;;;;;;;;4.40;3.00;;;;;31.63;22.29;102115.31;5097734;27;45288;-59
2022/07/10 11:20:37;;;;;;;;;1.20;1.20;;;;;31.17;22.77;102114.59;5100577;27;46271;-60
2022/07/10 11:23:21;;;;;;;;;4.60;2.60;;;;;30.83;24.22;102111.03;5100570;27;45353;-60
2022/07/10 11:26:01;;;;;;;;;2.20;0.80;;;;;30.55;23.80;102112.75;5100676;27;45287;-59
2022/07/10 11:28:54;;;;;;;;;0.00;0.00;;;;;30.20;23.86;102106.59;5101132;27;45514;-60
2022/07/10 11:31:22;;;;;;;;;2.00;2.00;;;;;29.96;25.41;102098.41;5100437;27;46190;-59
2022/07/10 11:33:51;;;;;;;;;2.00;2.00;;;;;29.82;24.54;102099.75;5099970;27;45341;-59
2022/07/10 11:36:25;;;;;;;;;2.00;2.00;;;;;29.55;25.87;102092.03;5100464;27;45622;-58